sensor_id;sensor_type;location;lat;lon;timestamp;temperature;humidity
5459;DHT22;2752;49.992;8.422;2022-08-14T00:00:17;23.60;1.00
5459;DHT22;2752;49.992;8.422;2022-08-14T00:02:44;23.50;1.00
5459;DHT22;2752;49.992;8.422;2022-08-14T00:05:14;23.40;1.00
5459;DHT22;2752;49.992;8.422;2022-08-14T00:07:43;23.40;1.00
5459;DHT22;2752;49.992;8.422;2022-08-14T00:10:13;23.20;1.00
5459;DHT22;2752;49.992;8.422;2022-08-14T00:12:43;23.70;1.00
5459;DHT22;2752;49.992;8.422;2022-08-14T00:15:14;23.20;1.00
5459;DHT22;2752;49.992;8.422;2022-08-14T00:17:42;23.10;1.00
5459;DHT22;2752;49.992;8.422;2022-08-14T00:22:37;23.30;1.00
5459;DHT22;2752;49.992;8.422;2022-08-14T00:25:06;23.20;1.00
5459;DHT22;2752;49.992;8.422;2022-08-14T00:27:38;23.30;1.00
5459;DHT22;2752;49.992;8.422;2022-08-14T00:30:08;23.20;1.00
5459;DHT22;2752;49.992;8.422;2022-08-14T00:32:35;23.20;1.00
5459;DHT22;2752;49.992;8.422;2022-08-14T00:35:02;23.10;1.00
5459;DHT22;2752;49.992;8.422;2022-08-14T00:37:30;23.10;1.00
5459;DHT22;2752;49.992;8.422;2022-08-14T00:39:57;23.10;1.00
5459;DHT22;2752;49.992;8.422;2022-08-14T00:42:26;22.90;1.00
5459;DHT22;2752;49.992;8.422;2022-08-14T00:44:55;22.90;1.00
5459;DHT22;2752;49.992;8.422;2022-08-14T00:47:22;22.90;1.00
5459;DHT22;2752;49.992;8.422;2022-08-14T00:49:50;22.90;1.00
5459;DHT22;2752;49.992;8.422;2022-08-14T00:52:18;22.90;1.00
5459;DHT22;2752;49.992;8.422;2022-08-14T00:54:47;22.90;1.00
5459;DHT22;2752;49.992;8.422;2022-08-14T00:57:19;22.90;1.00
5459;DHT22;2752;49.992;8.422;2022-08-14T00:59:47;22.90;1.00
5459;DHT22;2752;49.992;8.422;2022-08-14T01:02:15;22.70;1.00
5459;DHT22;2752;49.992;8.422;2022-08-14T01:04:44;22.70;1.00
5459;DHT22;2752;49.992;8.422;2022-08-14T01:07:11;22.60;1.00
5459;DHT22;2752;49.992;8.422;2022-08-14T01:09:46;22.60;1.00
5459;DHT22;2752;49.992;8.422;2022-08-14T01:12:14;22.60;1.00
5459;DHT22;2752;49.992;8.422;2022-08-14T01:14:41;22.60;1.00
5459;DHT22;2752;49.992;8.422;2022-08-14T01:17:10;22.40;1.00
5459;DHT22;2752;49.992;8.422;2022-08-14T01:19:36;22.60;1.00
5459;DHT22;2752;49.992;8.422;2022-08-14T01:22:22;22.60;1.00
5459;DHT22;2752;49.992;8.422;2022-08-14T01:24:48;22.60;1.00
5459;DHT22;2752;49.992;8.422;2022-08-14T01:29:44;23.20;1.00
5459;DHT22;2752;49.992;8.422;2022-08-14T01:32:11;22.40;1.00
5459;DHT22;2752;49.992;8.422;2022-08-14T01:34:39;22.30;1.00
5459;DHT22;2752;49.992;8.422;2022-08-14T01:37:06;22.20;1.00
5459;DHT22;2752;49.992;8.422;2022-08-14T01:39:34;22.10;1.00
5459;DHT22;2752;49.992;8.422;2022-08-14T01:42:01;22.10;1.00
5459;DHT22;2752;49.992;8.422;2022-08-14T01:44:30;22.20;1.00
5459;DHT22;2752;49.992;8.422;2022-08-14T01:46:58;22.20;1.00
5459;DHT22;2752;49.992;8.422;2022-08-14T01:49:26;21.80;1.00
5459;DHT22;2752;49.992;8.422;2022-08-14T01:51:56;22.00;1.00
5459;DHT22;2752;49.992;8.422;2022-08-14T01:54:24;21.70;1.00
5459;DHT22;2752;49.992;8.422;2022-08-14T01:56:53;21.90;1.00
5459;DHT22;2752;49.992;8.422;2022-08-14T01:59:23;21.80;1.00
5459;DHT22;2752;49.992;8.422;2022-08-14T02:04:26;21.80;1.00
5459;DHT22;2752;49.992;8.422;2022-08-14T02:06:54;21.90;1.00
5459;DHT22;2752;49.992;8.422;2022-08-14T02:09:20;21.90;1.00
5459;DHT22;2752;49.992;8.422;2022-08-14T02:11:48;21.80;1.00
5459;DHT22;2752;49.992;8.422;2022-08-14T02:14:16;21.70;1.00
5459;DHT22;2752;49.992;8.422;2022-08-14T02:16:46;21.80;1.00
5459;DHT22;2752;49.992;8.422;2022-08-14T02:19:19;21.70;1.00
5459;DHT22;2752;49.992;8.422;2022-08-14T02:21:48;21.80;1.00
5459;DHT22;2752;49.992;8.422;2022-08-14T02:24:15;21.70;1.00
5459;DHT22;2752;49.992;8.422;2022-08-14T02:26:44;21.60;1.00
5459;DHT22;2752;49.992;8.422;2022-08-14T02:29:13;21.60;1.00
5459;DHT22;2752;49.992;8.422;2022-08-14T02:31:45;21.50;1.00
5459;DHT22;2752;49.992;8.422;2022-08-14T02:34:15;21.50;1.00
5459;DHT22;2752;49.992;8.422;2022-08-14T02:36:44;21.50;1.00
5459;DHT22;2752;49.992;8.422;2022-08-14T02:39:12;21.40;1.00
5459;DHT22;2752;49.992;8.422;2022-08-14T02:41:40;21.40;1.00
5459;DHT22;2752;49.992;8.422;2022-08-14T02:44:08;21.50;1.00
5459;DHT22;2752;49.992;8.422;2022-08-14T02:46:36;21.50;1.00
5459;DHT22;2752;49.992;8.422;2022-08-14T02:49:04;21.40;1.00
5459;DHT22;2752;49.992;8.422;2022-08-14T02:51:32;21.40;1.00
5459;DHT22;2752;49.992;8.422;2022-08-14T02:54:00;21.60;1.00
5459;DHT22;2752;49.992;8.422;2022-08-14T02:56:27;21.60;1.00
5459;DHT22;2752;49.992;8.422;2022-08-14T02:58:55;21.30;1.00
5459;DHT22;2752;49.992;8.422;2022-08-14T03:01:26;21.20;1.00
5459;DHT22;2752;49.992;8.422;2022-08-14T03:03:53;21.30;1.00
5459;DHT22;2752;49.992;8.422;2022-08-14T03:08:50;21.30;1.00
5459;DHT22;2752;49.992;8.422;2022-08-14T03:11:18;21.30;1.00
5459;DHT22;2752;49.992;8.422;2022-08-14T03:13:47;21.20;1.00
5459;DHT22;2752;49.992;8.422;2022-08-14T03:16:16;21.20;1.00
5459;DHT22;2752;49.992;8.422;2022-08-14T03:18:44;21.10;1.00
5459;DHT22;2752;49.992;8.422;2022-08-14T03:21:13;21.20;1.00
5459;DHT22;2752;49.992;8.422;2022-08-14T03:23:45;21.10;1.00
5459;DHT22;2752;49.992;8.422;2022-08-14T03:26:15;21.10;1.00
5459;DHT22;2752;49.992;8.422;2022-08-14T03:28:44;21.00;1.00
5459;DHT22;2752;49.992;8.422;2022-08-14T03:31:11;21.10;1.00
5459;DHT22;2752;49.992;8.422;2022-08-14T03:33:40;21.00;1.00
5459;DHT22;2752;49.992;8.422;2022-08-14T03:36:08;20.90;1.00
5459;DHT22;2752;49.992;8.422;2022-08-14T03:38:36;20.90;1.00
5459;DHT22;2752;49.992;8.422;2022-08-14T03:41:08;20.90;1.00
5459;DHT22;2752;49.992;8.422;2022-08-14T03:43:38;20.90;1.00
5459;DHT22;2752;49.992;8.422;2022-08-14T03:46:05;21.00;1.00
5459;DHT22;2752;49.992;8.422;2022-08-14T03:48:33;21.10;1.00
5459;DHT22;2752;49.992;8.422;2022-08-14T03:50:59;20.90;1.00
5459;DHT22;2752;49.992;8.422;2022-08-14T03:53:26;20.70;1.00
5459;DHT22;2752;49.992;8.422;2022-08-14T03:55:53;20.90;1.00
5459;DHT22;2752;49.992;8.422;2022-08-14T03:58:24;20.90;1.00
5459;DHT22;2752;49.992;8.422;2022-08-14T04:00:51;20.90;1.00
5459;DHT22;2752;49.992;8.422;2022-08-14T04:03:17;20.80;1.00
5459;DHT22;2752;49.992;8.422;2022-08-14T04:05:44;20.80;1.00
5459;DHT22;2752;49.992;8.422;2022-08-14T04:08:11;20.70;1.00
5459;DHT22;2752;49.992;8.422;2022-08-14T04:10:38;20.80;1.00
5459;DHT22;2752;49.992;8.422;2022-08-14T04:13:05;20.80;1.00
5459;DHT22;2752;49.992;8.422;2022-08-14T04:15:34;20.80;1.00
5459;DHT22;2752;49.992;8.422;2022-08-14T04:18:03;20.30;1.00
5459;DHT22;2752;49.992;8.422;2022-08-14T04:20:32;20.70;1.00
5459;DHT22;2752;49.992;8.422;2022-08-14T04:22:59;20.60;1.00
5459;DHT22;2752;49.992;8.422;2022-08-14T04:25:26;20.70;1.00
5459;DHT22;2752;49.992;8.422;2022-08-14T04:27:52;20.80;1.00
5459;DHT22;2752;49.992;8.422;2022-08-14T04:30:20;20.60;1.00
5459;DHT22;2752;49.992;8.422;2022-08-14T04:32:48;20.70;1.00
5459;DHT22;2752;49.992;8.422;2022-08-14T04:35:15;20.60;1.00
5459;DHT22;2752;49.992;8.422;2022-08-14T04:37:42;20.40;1.00
5459;DHT22;2752;49.992;8.422;2022-08-14T04:40:27;20.50;1.00
5459;DHT22;2752;49.992;8.422;2022-08-14T04:43:11;20.60;1.00
5459;DHT22;2752;49.992;8.422;2022-08-14T04:45:55;20.60;1.00
5459;DHT22;2752;49.992;8.422;2022-08-14T04:48:26;20.70;1.00
5459;DHT22;2752;49.992;8.422;2022-08-14T04:50:52;20.60;1.00
5459;DHT22;2752;49.992;8.422;2022-08-14T04:53:21;20.80;1.00
5459;DHT22;2752;49.992;8.422;2022-08-14T04:55:49;20.70;1.00
5459;DHT22;2752;49.992;8.422;2022-08-14T04:58:17;20.70;1.00
5459;DHT22;2752;49.992;8.422;2022-08-14T05:00:44;20.90;1.00
5459;DHT22;2752;49.992;8.422;2022-08-14T05:03:15;20.80;1.00
5459;DHT22;2752;49.992;8.422;2022-08-14T05:05:46;20.70;1.00
5459;DHT22;2752;49.992;8.422;2022-08-14T05:08:13;20.80;1.00
5459;DHT22;2752;49.992;8.422;2022-08-14T05:10:43;20.90;1.00
5459;DHT22;2752;49.992;8.422;2022-08-14T05:13:10;20.80;1.00
5459;DHT22;2752;49.992;8.422;2022-08-14T05:15:39;20.90;1.00
5459;DHT22;2752;49.992;8.422;2022-08-14T05:18:08;21.00;1.00
5459;DHT22;2752;49.992;8.422;2022-08-14T05:20:37;20.90;1.00
5459;DHT22;2752;49.992;8.422;2022-08-14T05:23:05;21.00;1.00
5459;DHT22;2752;49.992;8.422;2022-08-14T05:25:33;21.10;1.00
5459;DHT22;2752;49.992;8.422;2022-08-14T05:28:07;21.20;1.00
5459;DHT22;2752;49.992;8.422;2022-08-14T05:30:34;21.20;1.00
5459;DHT22;2752;49.992;8.422;2022-08-14T05:33:01;21.40;1.00
5459;DHT22;2752;49.992;8.422;2022-08-14T05:35:27;21.40;1.00
5459;DHT22;2752;49.992;8.422;2022-08-14T05:37:54;21.50;1.00
5459;DHT22;2752;49.992;8.422;2022-08-14T05:40:22;21.60;1.00
5459;DHT22;2752;49.992;8.422;2022-08-14T05:42:49;21.70;1.00
5459;DHT22;2752;49.992;8.422;2022-08-14T05:45:15;21.60;1.00
5459;DHT22;2752;49.992;8.422;2022-08-14T05:47:43;21.00;1.00
5459;DHT22;2752;49.992;8.422;2022-08-14T05:50:11;21.90;1.00
5459;DHT22;2752;49.992;8.422;2022-08-14T05:52:38;21.80;1.00
5459;DHT22;2752;49.992;8.422;2022-08-14T05:55:07;21.90;1.00
5459;DHT22;2752;49.992;8.422;2022-08-14T05:57:46;21.90;1.00
5459;DHT22;2752;49.992;8.422;2022-08-14T06:00:15;22.10;1.00
5459;DHT22;2752;49.992;8.422;2022-08-14T06:02:42;22.20;1.00
5459;DHT22;2752;49.992;8.422;2022-08-14T06:05:09;22.20;1.00
5459;DHT22;2752;49.992;8.422;2022-08-14T06:07:36;22.30;1.00
5459;DHT22;2752;49.992;8.422;2022-08-14T06:10:04;22.70;1.00
5459;DHT22;2752;49.992;8.422;2022-08-14T06:12:31;22.40;1.00
5459;DHT22;2752;49.992;8.422;2022-08-14T06:14:59;22.50;1.00
5459;DHT22;2752;49.992;8.422;2022-08-14T06:17:26;22.50;1.00
5459;DHT22;2752;49.992;8.422;2022-08-14T06:19:53;22.60;1.00
5459;DHT22;2752;49.992;8.422;2022-08-14T06:22:20;22.80;1.00
5459;DHT22;2752;49.992;8.422;2022-08-14T06:24:46;22.70;1.00
5459;DHT22;2752;49.992;8.422;2022-08-14T06:27:13;22.90;1.00
5459;DHT22;2752;49.992;8.422;2022-08-14T06:29:40;22.90;1.00
5459;DHT22;2752;49.992;8.422;2022-08-14T06:32:08;23.00;1.00
5459;DHT22;2752;49.992;8.422;2022-08-14T06:37:03;23.10;1.00
5459;DHT22;2752;49.992;8.422;2022-08-14T06:39:30;23.30;1.00
5459;DHT22;2752;49.992;8.422;2022-08-14T06:41:58;23.40;1.00
5459;DHT22;2752;49.992;8.422;2022-08-14T06:44:25;23.30;1.00
5459;DHT22;2752;49.992;8.422;2022-08-14T06:46:52;23.20;1.00
5459;DHT22;2752;49.992;8.422;2022-08-14T06:49:20;23.70;1.00
5459;DHT22;2752;49.992;8.422;2022-08-14T06:51:47;23.40;1.00
5459;DHT22;2752;49.992;8.422;2022-08-14T06:54:14;23.40;1.00
5459;DHT22;2752;49.992;8.422;2022-08-14T06:56:41;23.50;1.00
5459;DHT22;2752;49.992;8.422;2022-08-14T06:59:07;23.60;1.00
5459;DHT22;2752;49.992;8.422;2022-08-14T07:01:34;23.70;1.00
5459;DHT22;2752;49.992;8.422;2022-08-14T07:04:19;24.20;1.00
5459;DHT22;2752;49.992;8.422;2022-08-14T07:07:04;24.70;1.00
5459;DHT22;2752;49.992;8.422;2022-08-14T07:09:31;23.90;1.00
5459;DHT22;2752;49.992;8.422;2022-08-14T07:11:57;24.10;1.00
5459;DHT22;2752;49.992;8.422;2022-08-14T07:14:24;23.80;1.00
5459;DHT22;2752;49.992;8.422;2022-08-14T07:16:51;23.90;1.00
5459;DHT22;2752;49.992;8.422;2022-08-14T07:19:19;24.00;1.00
5459;DHT22;2752;49.992;8.422;2022-08-14T07:21:47;24.10;1.00
5459;DHT22;2752;49.992;8.422;2022-08-14T07:24:14;24.40;1.00
5459;DHT22;2752;49.992;8.422;2022-08-14T07:26:40;24.10;1.00
5459;DHT22;2752;49.992;8.422;2022-08-14T07:29:07;24.30;1.00
5459;DHT22;2752;49.992;8.422;2022-08-14T07:31:34;24.40;1.00
5459;DHT22;2752;49.992;8.422;2022-08-14T07:34:01;24.50;1.00
5459;DHT22;2752;49.992;8.422;2022-08-14T07:36:28;24.50;1.00
5459;DHT22;2752;49.992;8.422;2022-08-14T07:38:55;24.80;1.00
5459;DHT22;2752;49.992;8.422;2022-08-14T07:41:22;25.00;1.00
5459;DHT22;2752;49.992;8.422;2022-08-14T07:43:49;24.90;1.00
5459;DHT22;2752;49.992;8.422;2022-08-14T07:46:15;24.90;1.00
5459;DHT22;2752;49.992;8.422;2022-08-14T07:48:42;25.00;1.00
5459;DHT22;2752;49.992;8.422;2022-08-14T07:51:09;25.10;1.00
5459;DHT22;2752;49.992;8.422;2022-08-14T07:53:37;25.30;1.00
5459;DHT22;2752;49.992;8.422;2022-08-14T07:56:04;25.40;1.00
5459;DHT22;2752;49.992;8.422;2022-08-14T07:58:31;25.40;1.00
5459;DHT22;2752;49.992;8.422;2022-08-14T08:00:58;25.90;1.00
5459;DHT22;2752;49.992;8.422;2022-08-14T08:03:25;25.50;1.00
5459;DHT22;2752;49.992;8.422;2022-08-14T08:05:53;25.80;1.00
5459;DHT22;2752;49.992;8.422;2022-08-14T08:08:20;25.40;1.00
5459;DHT22;2752;49.992;8.422;2022-08-14T08:10:48;25.50;1.00
5459;DHT22;2752;49.992;8.422;2022-08-14T08:13:16;25.80;1.00
5459;DHT22;2752;49.992;8.422;2022-08-14T08:15:45;26.00;1.00
5459;DHT22;2752;49.992;8.422;2022-08-14T08:18:13;26.50;1.00
5459;DHT22;2752;49.992;8.422;2022-08-14T08:20:42;26.70;1.00
5459;DHT22;2752;49.992;8.422;2022-08-14T08:23:10;26.80;1.00
5459;DHT22;2752;49.992;8.422;2022-08-14T08:25:39;26.80;1.00
5459;DHT22;2752;49.992;8.422;2022-08-14T08:28:10;26.70;1.00
5459;DHT22;2752;49.992;8.422;2022-08-14T08:30:41;27.00;1.00
5459;DHT22;2752;49.992;8.422;2022-08-14T08:33:09;27.90;1.00
5459;DHT22;2752;49.992;8.422;2022-08-14T08:35:37;27.10;1.00
5459;DHT22;2752;49.992;8.422;2022-08-14T08:38:05;27.20;1.00
5459;DHT22;2752;49.992;8.422;2022-08-14T08:40:34;27.10;1.00
5459;DHT22;2752;49.992;8.422;2022-08-14T08:43:02;27.30;1.00
5459;DHT22;2752;49.992;8.422;2022-08-14T08:45:30;27.30;1.00
5459;DHT22;2752;49.992;8.422;2022-08-14T08:47:57;27.30;1.00
5459;DHT22;2752;49.992;8.422;2022-08-14T08:50:25;27.60;1.00
5459;DHT22;2752;49.992;8.422;2022-08-14T08:52:55;27.50;1.00
5459;DHT22;2752;49.992;8.422;2022-08-14T08:55:31;27.70;1.00
5459;DHT22;2752;49.992;8.422;2022-08-14T08:57:59;27.80;1.00
5459;DHT22;2752;49.992;8.422;2022-08-14T09:00:29;27.90;1.00
5459;DHT22;2752;49.992;8.422;2022-08-14T09:03:00;27.70;1.00
5459;DHT22;2752;49.992;8.422;2022-08-14T09:05:27;28.00;1.00
5459;DHT22;2752;49.992;8.422;2022-08-14T09:08:08;28.10;1.00
5459;DHT22;2752;49.992;8.422;2022-08-14T09:10:35;28.60;1.00
5459;DHT22;2752;49.992;8.422;2022-08-14T09:13:03;28.20;1.00
5459;DHT22;2752;49.992;8.422;2022-08-14T09:15:31;27.80;1.00
5459;DHT22;2752;49.992;8.422;2022-08-14T09:17:58;27.90;1.00
5459;DHT22;2752;49.992;8.422;2022-08-14T09:20:25;28.30;1.00
5459;DHT22;2752;49.992;8.422;2022-08-14T09:22:53;28.00;1.00
5459;DHT22;2752;49.992;8.422;2022-08-14T09:25:20;28.20;1.00
5459;DHT22;2752;49.992;8.422;2022-08-14T09:27:47;28.50;1.00
5459;DHT22;2752;49.992;8.422;2022-08-14T09:30:13;28.80;1.00
5459;DHT22;2752;49.992;8.422;2022-08-14T09:33:06;29.00;1.00
5459;DHT22;2752;49.992;8.422;2022-08-14T09:35:46;28.90;1.00
5459;DHT22;2752;49.992;8.422;2022-08-14T09:38:21;29.10;1.00
5459;DHT22;2752;49.992;8.422;2022-08-14T09:40:58;29.30;1.00
5459;DHT22;2752;49.992;8.422;2022-08-14T09:43:30;29.40;1.00
5459;DHT22;2752;49.992;8.422;2022-08-14T09:45:58;29.30;1.00
5459;DHT22;2752;49.992;8.422;2022-08-14T09:48:26;29.40;1.00
5459;DHT22;2752;49.992;8.422;2022-08-14T09:50:55;29.30;1.00
5459;DHT22;2752;49.992;8.422;2022-08-14T09:53:36;29.30;1.00
5459;DHT22;2752;49.992;8.422;2022-08-14T09:56:07;29.60;1.00
5459;DHT22;2752;49.992;8.422;2022-08-14T09:58:37;29.30;1.00
5459;DHT22;2752;49.992;8.422;2022-08-14T10:01:09;29.60;1.00
5459;DHT22;2752;49.992;8.422;2022-08-14T10:03:46;29.90;1.00
5459;DHT22;2752;49.992;8.422;2022-08-14T10:06:15;29.80;1.00
5459;DHT22;2752;49.992;8.422;2022-08-14T10:08:45;29.80;1.00
5459;DHT22;2752;49.992;8.422;2022-08-14T10:11:14;30.30;1.00
5459;DHT22;2752;49.992;8.422;2022-08-14T10:13:44;30.20;1.00
5459;DHT22;2752;49.992;8.422;2022-08-14T10:16:11;30.20;1.00
5459;DHT22;2752;49.992;8.422;2022-08-14T10:18:40;30.30;1.00
5459;DHT22;2752;49.992;8.422;2022-08-14T10:21:09;30.60;1.00
5459;DHT22;2752;49.992;8.422;2022-08-14T10:23:44;31.00;1.00
5459;DHT22;2752;49.992;8.422;2022-08-14T10:26:16;30.90;1.00
5459;DHT22;2752;49.992;8.422;2022-08-14T10:28:45;31.30;1.00
5459;DHT22;2752;49.992;8.422;2022-08-14T10:31:16;31.20;1.00
5459;DHT22;2752;49.992;8.422;2022-08-14T10:33:57;31.60;1.00
5459;DHT22;2752;49.992;8.422;2022-08-14T10:36:25;30.50;1.00
5459;DHT22;2752;49.992;8.422;2022-08-14T10:38:56;31.10;1.00
5459;DHT22;2752;49.992;8.422;2022-08-14T10:41:34;31.00;1.00
5459;DHT22;2752;49.992;8.422;2022-08-14T10:44:07;31.40;1.00
5459;DHT22;2752;49.992;8.422;2022-08-14T10:46:43;31.60;1.00
5459;DHT22;2752;49.992;8.422;2022-08-14T10:49:21;31.60;1.00
5459;DHT22;2752;49.992;8.422;2022-08-14T10:51:56;31.70;1.00
5459;DHT22;2752;49.992;8.422;2022-08-14T10:54:30;31.80;1.00
5459;DHT22;2752;49.992;8.422;2022-08-14T10:56:58;31.80;1.00
5459;DHT22;2752;49.992;8.422;2022-08-14T10:59:24;31.70;1.00
5459;DHT22;2752;49.992;8.422;2022-08-14T11:01:51;31.60;1.00
5459;DHT22;2752;49.992;8.422;2022-08-14T11:04:22;31.80;1.00
5459;DHT22;2752;49.992;8.422;2022-08-14T11:06:53;31.60;1.00
5459;DHT22;2752;49.992;8.422;2022-08-14T11:09:20;31.80;1.00
5459;DHT22;2752;49.992;8.422;2022-08-14T11:11:53;31.90;1.00
5459;DHT22;2752;49.992;8.422;2022-08-14T11:14:20;32.00;1.00
5459;DHT22;2752;49.992;8.422;2022-08-14T11:16:48;31.70;1.00
5459;DHT22;2752;49.992;8.422;2022-08-14T11:19:16;31.90;1.00
5459;DHT22;2752;49.992;8.422;2022-08-14T11:21:48;31.70;1.00
5459;DHT22;2752;49.992;8.422;2022-08-14T11:24:16;31.70;1.00
5459;DHT22;2752;49.992;8.422;2022-08-14T11:26:44;31.70;1.00
5459;DHT22;2752;49.992;8.422;2022-08-14T11:29:12;31.50;1.00
5459;DHT22;2752;49.992;8.422;2022-08-14T11:31:39;32.10;1.00
5459;DHT22;2752;49.992;8.422;2022-08-14T11:34:06;31.60;1.00
5459;DHT22;2752;49.992;8.422;2022-08-14T11:36:34;31.70;1.00
5459;DHT22;2752;49.992;8.422;2022-08-14T11:39:03;31.60;1.00
5459;DHT22;2752;49.992;8.422;2022-08-14T11:41:33;31.60;1.00
5459;DHT22;2752;49.992;8.422;2022-08-14T11:43:59;32.00;1.00
5459;DHT22;2752;49.992;8.422;2022-08-14T11:48:53;32.10;1.00
5459;DHT22;2752;49.992;8.422;2022-08-14T11:51:23;32.10;1.00
5459;DHT22;2752;49.992;8.422;2022-08-14T11:53:54;32.30;1.00
5459;DHT22;2752;49.992;8.422;2022-08-14T11:56:22;32.20;1.00
5459;DHT22;2752;49.992;8.422;2022-08-14T11:58:51;32.30;1.00
5459;DHT22;2752;49.992;8.422;2022-08-14T12:01:24;32.90;1.00
5459;DHT22;2752;49.992;8.422;2022-08-14T12:04:07;32.30;1.00
5459;DHT22;2752;49.992;8.422;2022-08-14T12:06:44;32.60;1.00
5459;DHT22;2752;49.992;8.422;2022-08-14T12:09:13;32.50;1.00
5459;DHT22;2752;49.992;8.422;2022-08-14T12:11:42;32.40;1.00
5459;DHT22;2752;49.992;8.422;2022-08-14T12:14:10;32.40;1.00
5459;DHT22;2752;49.992;8.422;2022-08-14T12:16:37;32.70;1.00
5459;DHT22;2752;49.992;8.422;2022-08-14T12:19:04;32.80;1.00
5459;DHT22;2752;49.992;8.422;2022-08-14T12:21:30;33.30;1.00
5459;DHT22;2752;49.992;8.422;2022-08-14T12:24:03;33.50;1.00
5459;DHT22;2752;49.992;8.422;2022-08-14T12:26:30;33.40;1.00
5459;DHT22;2752;49.992;8.422;2022-08-14T12:29:05;33.30;1.00
5459;DHT22;2752;49.992;8.422;2022-08-14T12:31:33;33.50;1.00
5459;DHT22;2752;49.992;8.422;2022-08-14T12:34:02;33.60;1.00
5459;DHT22;2752;49.992;8.422;2022-08-14T12:36:30;33.80;1.00
5459;DHT22;2752;49.992;8.422;2022-08-14T12:38:57;33.90;1.00
5459;DHT22;2752;49.992;8.422;2022-08-14T12:41:26;33.60;1.00
5459;DHT22;2752;49.992;8.422;2022-08-14T12:43:56;33.90;1.00
5459;DHT22;2752;49.992;8.422;2022-08-14T12:46:27;33.90;1.00
5459;DHT22;2752;49.992;8.422;2022-08-14T12:48:56;34.20;1.00
5459;DHT22;2752;49.992;8.422;2022-08-14T12:51:24;33.90;1.00
5459;DHT22;2752;49.992;8.422;2022-08-14T12:53:52;34.10;1.00
5459;DHT22;2752;49.992;8.422;2022-08-14T12:56:21;34.20;1.00
5459;DHT22;2752;49.992;8.422;2022-08-14T12:58:51;34.30;1.00
5459;DHT22;2752;49.992;8.422;2022-08-14T13:01:19;34.30;1.00
5459;DHT22;2752;49.992;8.422;2022-08-14T13:03:47;34.30;1.00
5459;DHT22;2752;49.992;8.422;2022-08-14T13:06:14;34.20;1.00
5459;DHT22;2752;49.992;8.422;2022-08-14T13:08:42;34.10;1.00
5459;DHT22;2752;49.992;8.422;2022-08-14T13:11:11;34.60;1.00
5459;DHT22;2752;49.992;8.422;2022-08-14T13:13:40;34.70;1.00
5459;DHT22;2752;49.992;8.422;2022-08-14T13:16:07;34.50;1.00
5459;DHT22;2752;49.992;8.422;2022-08-14T13:18:37;34.20;1.00
5459;DHT22;2752;49.992;8.422;2022-08-14T13:21:10;34.40;1.00
5459;DHT22;2752;49.992;8.422;2022-08-14T13:23:39;34.60;1.00
5459;DHT22;2752;49.992;8.422;2022-08-14T13:28:37;35.10;1.00
5459;DHT22;2752;49.992;8.422;2022-08-14T13:31:06;34.70;1.00
5459;DHT22;2752;49.992;8.422;2022-08-14T13:33:35;34.70;1.00
5459;DHT22;2752;49.992;8.422;2022-08-14T13:36:02;34.50;1.00
5459;DHT22;2752;49.992;8.422;2022-08-14T13:38:31;34.40;1.00
5459;DHT22;2752;49.992;8.422;2022-08-14T13:40:57;34.60;1.00
5459;DHT22;2752;49.992;8.422;2022-08-14T13:43:24;34.60;1.00
5459;DHT22;2752;49.992;8.422;2022-08-14T13:45:51;35.00;1.00
5459;DHT22;2752;49.992;8.422;2022-08-14T13:53:20;35.60;1.00
5459;DHT22;2752;49.992;8.422;2022-08-14T13:55:50;35.50;1.00
5459;DHT22;2752;49.992;8.422;2022-08-14T13:58:18;35.30;1.00
5459;DHT22;2752;49.992;8.422;2022-08-14T14:00:46;35.60;1.00
5459;DHT22;2752;49.992;8.422;2022-08-14T14:03:17;35.60;1.00
5459;DHT22;2752;49.992;8.422;2022-08-14T14:05:44;35.40;1.00
5459;DHT22;2752;49.992;8.422;2022-08-14T14:08:14;35.50;1.00
5459;DHT22;2752;49.992;8.422;2022-08-14T14:10:42;35.30;1.00
5459;DHT22;2752;49.992;8.422;2022-08-14T14:13:13;35.10;1.00
5459;DHT22;2752;49.992;8.422;2022-08-14T14:15:41;35.10;1.00
5459;DHT22;2752;49.992;8.422;2022-08-14T14:18:08;34.90;1.00
5459;DHT22;2752;49.992;8.422;2022-08-14T14:20:36;34.50;1.00
5459;DHT22;2752;49.992;8.422;2022-08-14T14:23:03;34.80;1.00
5459;DHT22;2752;49.992;8.422;2022-08-14T14:25:38;35.10;1.00
5459;DHT22;2752;49.992;8.422;2022-08-14T14:28:07;34.90;1.00
5459;DHT22;2752;49.992;8.422;2022-08-14T14:30:36;35.20;1.00
5459;DHT22;2752;49.992;8.422;2022-08-14T14:33:08;34.60;1.00
5459;DHT22;2752;49.992;8.422;2022-08-14T14:35:37;34.00;1.00
5459;DHT22;2752;49.992;8.422;2022-08-14T14:38:06;34.00;1.00
5459;DHT22;2752;49.992;8.422;2022-08-14T14:40:34;33.90;1.00
5459;DHT22;2752;49.992;8.422;2022-08-14T14:43:06;34.00;1.00
5459;DHT22;2752;49.992;8.422;2022-08-14T14:45:38;34.10;1.00
5459;DHT22;2752;49.992;8.422;2022-08-14T14:48:07;34.00;1.00
5459;DHT22;2752;49.992;8.422;2022-08-14T14:50:34;34.10;1.00
5459;DHT22;2752;49.992;8.422;2022-08-14T14:53:02;33.90;1.00
5459;DHT22;2752;49.992;8.422;2022-08-14T14:55:30;33.50;1.00
5459;DHT22;2752;49.992;8.422;2022-08-14T14:57:57;33.50;1.00
5459;DHT22;2752;49.992;8.422;2022-08-14T15:00:25;33.70;1.00
5459;DHT22;2752;49.992;8.422;2022-08-14T15:02:54;33.60;1.00
5459;DHT22;2752;49.992;8.422;2022-08-14T15:05:22;33.60;1.00
5459;DHT22;2752;49.992;8.422;2022-08-14T15:07:50;33.70;1.00
5459;DHT22;2752;49.992;8.422;2022-08-14T15:10:19;33.80;1.00
5459;DHT22;2752;49.992;8.422;2022-08-14T15:12:45;33.70;1.00
5459;DHT22;2752;49.992;8.422;2022-08-14T15:15:12;33.80;1.00
5459;DHT22;2752;49.992;8.422;2022-08-14T15:17:39;34.20;1.00
5459;DHT22;2752;49.992;8.422;2022-08-14T15:20:10;34.20;1.00
5459;DHT22;2752;49.992;8.422;2022-08-14T15:22:37;34.20;1.00
5459;DHT22;2752;49.992;8.422;2022-08-14T15:25:05;34.60;1.00
5459;DHT22;2752;49.992;8.422;2022-08-14T15:27:31;34.40;1.00
5459;DHT22;2752;49.992;8.422;2022-08-14T15:29:59;34.80;1.00
5459;DHT22;2752;49.992;8.422;2022-08-14T15:32:25;34.50;1.00
5459;DHT22;2752;49.992;8.422;2022-08-14T15:34:52;34.20;1.00
5459;DHT22;2752;49.992;8.422;2022-08-14T15:37:20;34.30;1.00
5459;DHT22;2752;49.992;8.422;2022-08-14T15:39:48;34.60;1.00
5459;DHT22;2752;49.992;8.422;2022-08-14T15:42:15;34.20;1.00
5459;DHT22;2752;49.992;8.422;2022-08-14T15:44:43;35.00;1.00
5459;DHT22;2752;49.992;8.422;2022-08-14T15:47:10;34.90;1.00
5459;DHT22;2752;49.992;8.422;2022-08-14T15:49:37;35.00;1.00
5459;DHT22;2752;49.992;8.422;2022-08-14T15:52:04;34.80;1.00
5459;DHT22;2752;49.992;8.422;2022-08-14T15:54:33;34.50;1.00
5459;DHT22;2752;49.992;8.422;2022-08-14T15:57:01;34.20;1.00
5459;DHT22;2752;49.992;8.422;2022-08-14T15:59:29;34.00;1.00
5459;DHT22;2752;49.992;8.422;2022-08-14T16:02:17;33.70;1.00
5459;DHT22;2752;49.992;8.422;2022-08-14T16:04:43;33.70;1.00
5459;DHT22;2752;49.992;8.422;2022-08-14T16:07:10;33.60;1.00
5459;DHT22;2752;49.992;8.422;2022-08-14T16:09:38;33.90;1.00
5459;DHT22;2752;49.992;8.422;2022-08-14T16:12:05;33.80;1.00
5459;DHT22;2752;49.992;8.422;2022-08-14T16:14:32;33.70;1.00
5459;DHT22;2752;49.992;8.422;2022-08-14T16:16:59;33.90;1.00
5459;DHT22;2752;49.992;8.422;2022-08-14T16:19:27;33.70;1.00
5459;DHT22;2752;49.992;8.422;2022-08-14T16:21:59;33.70;1.00
5459;DHT22;2752;49.992;8.422;2022-08-14T16:24:28;33.50;1.00
5459;DHT22;2752;49.992;8.422;2022-08-14T16:26:58;33.70;1.00
5459;DHT22;2752;49.992;8.422;2022-08-14T16:29:25;33.70;1.00
5459;DHT22;2752;49.992;8.422;2022-08-14T16:31:53;33.70;1.00
5459;DHT22;2752;49.992;8.422;2022-08-14T16:34:20;33.70;1.00
5459;DHT22;2752;49.992;8.422;2022-08-14T16:36:47;33.90;1.00
5459;DHT22;2752;49.992;8.422;2022-08-14T16:39:14;33.70;1.00
5459;DHT22;2752;49.992;8.422;2022-08-14T16:41:42;33.60;1.00
5459;DHT22;2752;49.992;8.422;2022-08-14T16:44:10;33.50;1.00
5459;DHT22;2752;49.992;8.422;2022-08-14T16:46:39;33.80;1.00
5459;DHT22;2752;49.992;8.422;2022-08-14T16:49:10;33.70;1.00